sensor_id;sensor_type;location;lat;lon;timestamp;P1;durP1;ratioP1;P2;durP2;ratioP2
21837;SDS011;11081;45.946;6.140;2023-12-22T00:02:30;1.50;;;1.10;;
21837;SDS011;11081;45.946;6.140;2023-12-22T00:04:58;1.25;;;1.05;;
21837;SDS011;11081;45.946;6.140;2023-12-22T00:07:26;4.20;;;1.10;;
21837;SDS011;11081;45.946;6.140;2023-12-22T00:09:54;1.65;;;1.10;;
21837;SDS011;11081;45.946;6.140;2023-12-22T00:12:23;1.50;;;1.20;;
21837;SDS011;11081;45.946;6.140;2023-12-22T00:14:51;3.13;;;1.53;;
21837;SDS011;11081;45.946;6.140;2023-12-22T00:17:19;3.47;;;1.40;;
21837;SDS011;11081;45.946;6.140;2023-12-22T00:19:47;2.50;;;1.58;;
21837;SDS011;11081;45.946;6.140;2023-12-22T00:22:15;2.20;;;1.52;;
21837;SDS011;11081;45.946;6.140;2023-12-22T00:24:43;1.60;;;1.50;;
21837;SDS011;11081;45.946;6.140;2023-12-22T00:27:11;3.92;;;1.60;;
21837;SDS011;11081;45.946;6.140;2023-12-22T00:29:40;1.45;;;1.15;;
21837;SDS011;11081;45.946;6.140;2023-12-22T00:32:08;1.80;;;1.30;;
21837;SDS011;11081;45.946;6.140;2023-12-22T00:34:36;2.47;;;1.37;;
21837;SDS011;11081;45.946;6.140;2023-12-22T00:37:04;3.70;;;1.50;;
21837;SDS011;11081;45.946;6.140;2023-12-22T00:39:32;1.60;;;1.27;;
21837;SDS011;11081;45.946;6.140;2023-12-22T00:42:00;3.78;;;1.35;;
21837;SDS011;11081;45.946;6.140;2023-12-22T00:44:30;3.65;;;1.40;;
21837;SDS011;11081;45.946;6.140;2023-12-22T00:46:59;6.65;;;1.40;;
21837;SDS011;11081;45.946;6.140;2023-12-22T00:49:27;2.95;;;1.73;;
21837;SDS011;11081;45.946;6.140;2023-12-22T00:51:55;4.80;;;1.83;;
21837;SDS011;11081;45.946;6.140;2023-12-22T00:54:23;4.07;;;1.70;;
21837;SDS011;11081;45.946;6.140;2023-12-22T00:56:51;4.43;;;1.70;;
21837;SDS011;11081;45.946;6.140;2023-12-22T00:59:19;3.97;;;1.58;;
21837;SDS011;11081;45.946;6.140;2023-12-22T01:01:47;1.90;;;1.15;;
21837;SDS011;11081;45.946;6.140;2023-12-22T01:04:16;1.40;;;1.10;;
21837;SDS011;11081;45.946;6.140;2023-12-22T01:06:45;1.52;;;1.02;;
21837;SDS011;11081;45.946;6.140;2023-12-22T01:09:13;1.38;;;0.95;;
21837;SDS011;11081;45.946;6.140;2023-12-22T01:11:41;3.88;;;1.10;;
21837;SDS011;11081;45.946;6.140;2023-12-22T01:14:09;5.50;;;1.20;;
21837;SDS011;11081;45.946;6.140;2023-12-22T01:16:39;2.83;;;1.40;;
21837;SDS011;11081;45.946;6.140;2023-12-22T01:19:07;3.00;;;2.05;;
21837;SDS011;11081;45.946;6.140;2023-12-22T01:21:36;5.50;;;2.15;;
21837;SDS011;11081;45.946;6.140;2023-12-22T01:24:04;3.85;;;2.20;;
21837;SDS011;11081;45.946;6.140;2023-12-22T01:26:32;3.07;;;1.67;;
21837;SDS011;11081;45.946;6.140;2023-12-22T01:29:00;3.40;;;1.58;;
21837;SDS011;11081;45.946;6.140;2023-12-22T01:31:28;4.07;;;1.83;;
21837;SDS011;11081;45.946;6.140;2023-12-22T01:33:56;2.90;;;1.80;;
21837;SDS011;11081;45.946;6.140;2023-12-22T01:36:24;4.73;;;1.90;;
21837;SDS011;11081;45.946;6.140;2023-12-22T01:38:53;3.33;;;1.77;;
21837;SDS011;11081;45.946;6.140;2023-12-22T01:41:21;2.55;;;1.92;;
21837;SDS011;11081;45.946;6.140;2023-12-22T01:43:49;7.70;;;2.08;;
21837;SDS011;11081;45.946;6.140;2023-12-22T01:46:17;3.10;;;1.85;;
21837;SDS011;11081;45.946;6.140;2023-12-22T01:48:46;3.40;;;1.90;;
21837;SDS011;11081;45.946;6.140;2023-12-22T01:51:14;2.77;;;1.60;;
21837;SDS011;11081;45.946;6.140;2023-12-22T01:53:42;1.92;;;1.35;;
21837;SDS011;11081;45.946;6.140;2023-12-22T01:56:13;4.40;;;1.20;;
21837;SDS011;11081;45.946;6.140;2023-12-22T01:58:41;3.20;;;1.20;;
21837;SDS011;11081;45.946;6.140;2023-12-22T02:01:17;3.33;;;1.27;;
21837;SDS011;11081;45.946;6.140;2023-12-22T02:03:45;3.57;;;1.20;;
21837;SDS011;11081;45.946;6.140;2023-12-22T02:06:16;2.13;;;1.13;;
21837;SDS011;11081;45.946;6.140;2023-12-22T02:08:44;4.18;;;1.33;;
21837;SDS011;11081;45.946;6.140;2023-12-22T02:11:15;2.97;;;0.88;;
21837;SDS011;11081;45.946;6.140;2023-12-22T02:13:43;3.17;;;0.93;;
21837;SDS011;11081;45.946;6.140;2023-12-22T02:16:14;3.47;;;0.85;;
21837;SDS011;11081;45.946;6.140;2023-12-22T02:18:47;1.10;;;0.80;;
21837;SDS011;11081;45.946;6.140;2023-12-22T02:21:19;4.07;;;1.33;;
21837;SDS011;11081;45.946;6.140;2023-12-22T02:23:48;3.70;;;1.08;;
21837;SDS011;11081;45.946;6.140;2023-12-22T02:26:17;2.40;;;1.05;;
21837;SDS011;11081;45.946;6.140;2023-12-22T02:28:52;2.75;;;1.27;;
21837;SDS011;11081;45.946;6.140;2023-12-22T02:31:27;3.90;;;1.13;;
21837;SDS011;11081;45.946;6.140;2023-12-22T02:34:03;2.97;;;1.33;;
21837;SDS011;11081;45.946;6.140;2023-12-22T02:36:37;1.53;;;0.83;;
21837;SDS011;11081;45.946;6.140;2023-12-22T02:39:09;3.63;;;1.30;;
21837;SDS011;11081;45.946;6.140;2023-12-22T02:41:38;3.23;;;1.00;;
21837;SDS011;11081;45.946;6.140;2023-12-22T02:44:06;6.07;;;1.40;;
21837;SDS011;11081;45.946;6.140;2023-12-22T02:46:35;2.27;;;1.07;;
21837;SDS011;11081;45.946;6.140;2023-12-22T02:49:02;2.33;;;0.90;;
21837;SDS011;11081;45.946;6.140;2023-12-22T02:51:30;3.33;;;1.13;;
21837;SDS011;11081;45.946;6.140;2023-12-22T02:53:59;1.83;;;1.03;;
21837;SDS011;11081;45.946;6.140;2023-12-22T02:56:28;3.03;;;1.27;;
21837;SDS011;11081;45.946;6.140;2023-12-22T02:58:56;5.03;;;1.02;;
21837;SDS011;11081;45.946;6.140;2023-12-22T03:01:24;2.67;;;1.30;;
21837;SDS011;11081;45.946;6.140;2023-12-22T03:03:52;3.05;;;1.33;;
21837;SDS011;11081;45.946;6.140;2023-12-22T03:06:20;2.88;;;1.10;;
21837;SDS011;11081;45.946;6.140;2023-12-22T03:08:48;3.25;;;1.52;;
21837;SDS011;11081;45.946;6.140;2023-12-22T03:11:16;2.07;;;1.40;;
21837;SDS011;11081;45.946;6.140;2023-12-22T03:13:45;3.15;;;1.10;;
21837;SDS011;11081;45.946;6.140;2023-12-22T03:16:13;1.67;;;0.93;;
21837;SDS011;11081;45.946;6.140;2023-12-22T03:18:41;5.27;;;1.00;;
21837;SDS011;11081;45.946;6.140;2023-12-22T03:21:15;1.87;;;1.20;;
21837;SDS011;11081;45.946;6.140;2023-12-22T03:23:45;1.70;;;1.10;;
21837;SDS011;11081;45.946;6.140;2023-12-22T03:26:13;1.40;;;0.80;;
21837;SDS011;11081;45.946;6.140;2023-12-22T03:28:40;2.03;;;1.10;;
21837;SDS011;11081;45.946;6.140;2023-12-22T03:31:10;1.50;;;0.70;;
21837;SDS011;11081;45.946;6.140;2023-12-22T03:33:38;1.70;;;0.90;;
21837;SDS011;11081;45.946;6.140;2023-12-22T03:36:06;3.23;;;0.80;;
21837;SDS011;11081;45.946;6.140;2023-12-22T03:38:34;2.60;;;0.83;;
21837;SDS011;11081;45.946;6.140;2023-12-22T03:41:02;0.70;;;0.50;;
21837;SDS011;11081;45.946;6.140;2023-12-22T03:43:30;1.73;;;0.50;;
21837;SDS011;11081;45.946;6.140;2023-12-22T03:45:58;0.60;;;0.57;;
21837;SDS011;11081;45.946;6.140;2023-12-22T03:48:28;1.77;;;0.40;;
21837;SDS011;11081;45.946;6.140;2023-12-22T03:50:56;2.63;;;0.50;;
21837;SDS011;11081;45.946;6.140;2023-12-22T03:53:23;2.05;;;0.50;;
21837;SDS011;11081;45.946;6.140;2023-12-22T03:55:52;3.00;;;0.60;;
21837;SDS011;11081;45.946;6.140;2023-12-22T03:58:20;3.60;;;0.47;;
21837;SDS011;11081;45.946;6.140;2023-12-22T04:00:47;0.97;;;0.50;;
21837;SDS011;11081;45.946;6.140;2023-12-22T04:03:15;3.30;;;0.90;;
21837;SDS011;11081;45.946;6.140;2023-12-22T04:05:45;4.03;;;1.47;;
21837;SDS011;11081;45.946;6.140;2023-12-22T04:08:13;4.67;;;1.50;;
21837;SDS011;11081;45.946;6.140;2023-12-22T04:10:41;3.73;;;1.60;;
21837;SDS011;11081;45.946;6.140;2023-12-22T04:13:10;2.90;;;1.20;;
21837;SDS011;11081;45.946;6.140;2023-12-22T04:15:37;3.33;;;1.23;;
21837;SDS011;11081;45.946;6.140;2023-12-22T04:18:05;2.37;;;1.07;;
21837;SDS011;11081;45.946;6.140;2023-12-22T04:20:33;6.38;;;1.63;;
21837;SDS011;11081;45.946;6.140;2023-12-22T04:23:03;2.70;;;1.40;;
21837;SDS011;11081;45.946;6.140;2023-12-22T04:25:31;3.10;;;1.10;;
21837;SDS011;11081;45.946;6.140;2023-12-22T04:27:59;3.43;;;1.23;;
21837;SDS011;11081;45.946;6.140;2023-12-22T04:30:27;1.43;;;1.10;;
21837;SDS011;11081;45.946;6.140;2023-12-22T04:32:59;2.13;;;1.10;;
21837;SDS011;11081;45.946;6.140;2023-12-22T04:35:27;2.83;;;1.53;;
21837;SDS011;11081;45.946;6.140;2023-12-22T04:37:55;2.10;;;1.10;;
21837;SDS011;11081;45.946;6.140;2023-12-22T04:40:25;4.33;;;1.57;;
21837;SDS011;11081;45.946;6.140;2023-12-22T04:42:54;2.50;;;1.50;;
21837;SDS011;11081;45.946;6.140;2023-12-22T04:45:22;3.10;;;1.33;;
21837;SDS011;11081;45.946;6.140;2023-12-22T04:47:50;2.00;;;1.30;;
21837;SDS011;11081;45.946;6.140;2023-12-22T04:50:18;3.85;;;1.40;;
21837;SDS011;11081;45.946;6.140;2023-12-22T04:52:46;3.03;;;1.47;;
21837;SDS011;11081;45.946;6.140;2023-12-22T04:55:14;1.63;;;1.15;;
21837;SDS011;11081;45.946;6.140;2023-12-22T04:57:44;2.63;;;1.10;;
21837;SDS011;11081;45.946;6.140;2023-12-22T05:00:12;1.47;;;1.00;;
21837;SDS011;11081;45.946;6.140;2023-12-22T05:02:40;2.15;;;1.02;;
21837;SDS011;11081;45.946;6.140;2023-12-22T05:05:09;4.25;;;1.35;;
21837;SDS011;11081;45.946;6.140;2023-12-22T05:07:38;1.80;;;1.17;;
21837;SDS011;11081;45.946;6.140;2023-12-22T05:10:07;2.53;;;0.98;;
21837;SDS011;11081;45.946;6.140;2023-12-22T05:12:35;1.05;;;0.90;;
21837;SDS011;11081;45.946;6.140;2023-12-22T05:15:05;1.23;;;0.73;;
21837;SDS011;11081;45.946;6.140;2023-12-22T05:17:33;1.43;;;0.70;;
21837;SDS011;11081;45.946;6.140;2023-12-22T05:20:01;1.95;;;1.08;;
21837;SDS011;11081;45.946;6.140;2023-12-22T05:22:29;1.98;;;1.17;;
21837;SDS011;11081;45.946;6.140;2023-12-22T05:25:02;2.08;;;1.00;;
21837;SDS011;11081;45.946;6.140;2023-12-22T05:27:30;3.00;;;1.20;;
21837;SDS011;11081;45.946;6.140;2023-12-22T05:29:58;3.47;;;0.90;;
21837;SDS011;11081;45.946;6.140;2023-12-22T05:32:30;1.60;;;0.95;;
21837;SDS011;11081;45.946;6.140;2023-12-22T05:34:59;2.63;;;0.70;;
21837;SDS011;11081;45.946;6.140;2023-12-22T05:37:27;1.47;;;0.70;;
21837;SDS011;11081;45.946;6.140;2023-12-22T05:39:55;3.50;;;0.70;;
21837;SDS011;11081;45.946;6.140;2023-12-22T05:42:23;1.13;;;0.57;;
21837;SDS011;11081;45.946;6.140;2023-12-22T05:44:51;0.77;;;0.40;;
21837;SDS011;11081;45.946;6.140;2023-12-22T05:47:19;1.35;;;0.63;;
21837;SDS011;11081;45.946;6.140;2023-12-22T05:49:48;2.30;;;0.68;;
21837;SDS011;11081;45.946;6.140;2023-12-22T05:52:16;0.93;;;0.43;;
21837;SDS011;11081;45.946;6.140;2023-12-22T05:54:44;0.98;;;0.50;;
21837;SDS011;11081;45.946;6.140;2023-12-22T05:57:12;0.82;;;0.50;;
21837;SDS011;11081;45.946;6.140;2023-12-22T05:59:40;1.10;;;0.47;;
21837;SDS011;11081;45.946;6.140;2023-12-22T06:02:08;2.17;;;0.75;;
21837;SDS011;11081;45.946;6.140;2023-12-22T06:04:36;1.85;;;0.45;;
21837;SDS011;11081;45.946;6.140;2023-12-22T06:07:05;0.80;;;0.50;;
21837;SDS011;11081;45.946;6.140;2023-12-22T06:09:33;2.70;;;0.80;;
21837;SDS011;11081;45.946;6.140;2023-12-22T06:12:00;3.23;;;1.10;;
21837;SDS011;11081;45.946;6.140;2023-12-22T06:14:28;2.25;;;0.65;;
21837;SDS011;11081;45.946;6.140;2023-12-22T06:16:57;1.33;;;0.45;;
21837;SDS011;11081;45.946;6.140;2023-12-22T06:19:25;2.05;;;0.40;;
21837;SDS011;11081;45.946;6.140;2023-12-22T06:21:55;1.80;;;0.47;;
21837;SDS011;11081;45.946;6.140;2023-12-22T06:24:24;2.95;;;0.45;;
21837;SDS011;11081;45.946;6.140;2023-12-22T06:26:52;2.50;;;0.50;;
21837;SDS011;11081;45.946;6.140;2023-12-22T06:29:20;2.75;;;0.90;;
21837;SDS011;11081;45.946;6.140;2023-12-22T06:31:49;1.20;;;0.50;;
21837;SDS011;11081;45.946;6.140;2023-12-22T06:34:17;1.53;;;0.47;;
21837;SDS011;11081;45.946;6.140;2023-12-22T06:36:45;2.22;;;1.20;;
21837;SDS011;11081;45.946;6.140;2023-12-22T06:39:13;2.93;;;1.00;;
21837;SDS011;11081;45.946;6.140;2023-12-22T06:41:42;1.93;;;0.80;;
21837;SDS011;11081;45.946;6.140;2023-12-22T06:44:10;1.45;;;0.90;;
21837;SDS011;11081;45.946;6.140;2023-12-22T06:46:38;2.17;;;0.52;;
21837;SDS011;11081;45.946;6.140;2023-12-22T06:49:06;3.40;;;0.80;;
21837;SDS011;11081;45.946;6.140;2023-12-22T06:51:34;0.88;;;0.68;;
21837;SDS011;11081;45.946;6.140;2023-12-22T06:54:03;2.37;;;0.93;;
21837;SDS011;11081;45.946;6.140;2023-12-22T06:56:33;1.48;;;1.00;;
21837;SDS011;11081;45.946;6.140;2023-12-22T06:59:03;3.10;;;0.80;;
21837;SDS011;11081;45.946;6.140;2023-12-22T07:01:32;2.90;;;1.10;;
21837;SDS011;11081;45.946;6.140;2023-12-22T07:04:02;2.73;;;1.10;;
21837;SDS011;11081;45.946;6.140;2023-12-22T07:06:31;5.23;;;1.20;;
21837;SDS011;11081;45.946;6.140;2023-12-22T07:11:56;4.43;;;1.33;;
21837;SDS011;11081;45.946;6.140;2023-12-22T07:14:26;5.28;;;1.50;;
21837;SDS011;11081;45.946;6.140;2023-12-22T07:16:54;2.92;;;1.50;;
21837;SDS011;11081;45.946;6.140;2023-12-22T07:19:24;4.37;;;1.30;;
21837;SDS011;11081;45.946;6.140;2023-12-22T07:21:52;5.23;;;1.57;;
21837;SDS011;11081;45.946;6.140;2023-12-22T07:24:20;4.13;;;1.63;;
21837;SDS011;11081;45.946;6.140;2023-12-22T07:26:48;5.93;;;1.58;;
21837;SDS011;11081;45.946;6.140;2023-12-22T07:29:16;4.87;;;1.60;;
21837;SDS011;11081;45.946;6.140;2023-12-22T07:31:45;5.75;;;2.08;;
21837;SDS011;11081;45.946;6.140;2023-12-22T07:34:13;7.60;;;3.47;;
21837;SDS011;11081;45.946;6.140;2023-12-22T07:36:41;8.13;;;2.90;;
21837;SDS011;11081;45.946;6.140;2023-12-22T07:39:20;7.75;;;2.45;;
21837;SDS011;11081;45.946;6.140;2023-12-22T07:41:48;5.73;;;1.73;;
21837;SDS011;11081;45.946;6.140;2023-12-22T07:44:16;10.07;;;2.47;;
21837;SDS011;11081;45.946;6.140;2023-12-22T07:46:53;7.00;;;4.05;;
21837;SDS011;11081;45.946;6.140;2023-12-22T07:49:24;9.13;;;2.53;;
21837;SDS011;11081;45.946;6.140;2023-12-22T07:51:52;10.25;;;2.58;;
21837;SDS011;11081;45.946;6.140;2023-12-22T07:54:20;9.35;;;2.28;;
21837;SDS011;11081;45.946;6.140;2023-12-22T07:56:49;7.30;;;1.83;;
21837;SDS011;11081;45.946;6.140;2023-12-22T07:59:17;4.90;;;1.92;;
21837;SDS011;11081;45.946;6.140;2023-12-22T08:01:57;5.50;;;2.07;;
21837;SDS011;11081;45.946;6.140;2023-12-22T08:04:26;6.47;;;2.10;;
21837;SDS011;11081;45.946;6.140;2023-12-22T08:06:54;7.17;;;2.03;;
21837;SDS011;11081;45.946;6.140;2023-12-22T08:09:22;4.90;;;2.05;;
21837;SDS011;11081;45.946;6.140;2023-12-22T08:11:50;7.07;;;1.80;;
21837;SDS011;11081;45.946;6.140;2023-12-22T08:14:19;4.75;;;1.92;;
21837;SDS011;11081;45.946;6.140;2023-12-22T08:16:48;9.93;;;1.97;;
21837;SDS011;11081;45.946;6.140;2023-12-22T08:19:18;8.23;;;3.80;;
21837;SDS011;11081;45.946;6.140;2023-12-22T08:21:48;12.10;;;4.30;;
21837;SDS011;11081;45.946;6.140;2023-12-22T08:24:18;8.45;;;3.95;;
21837;SDS011;11081;45.946;6.140;2023-12-22T08:26:49;8.85;;;3.58;;
21837;SDS011;11081;45.946;6.140;2023-12-22T08:29:17;7.83;;;2.80;;
21837;SDS011;11081;45.946;6.140;2023-12-22T08:31:46;5.83;;;2.40;;
21837;SDS011;11081;45.946;6.140;2023-12-22T08:34:14;5.43;;;1.80;;
21837;SDS011;11081;45.946;6.140;2023-12-22T08:36:44;6.63;;;1.42;;
21837;SDS011;11081;45.946;6.140;2023-12-22T08:39:12;3.55;;;2.13;;
21837;SDS011;11081;45.946;6.140;2023-12-22T08:41:40;5.80;;;2.42;;
21837;SDS011;11081;45.946;6.140;2023-12-22T08:44:09;3.78;;;2.00;;
21837;SDS011;11081;45.946;6.140;2023-12-22T08:46:37;3.65;;;1.63;;
21837;SDS011;11081;45.946;6.140;2023-12-22T08:49:05;2.88;;;1.35;;
21837;SDS011;11081;45.946;6.140;2023-12-22T08:51:33;4.20;;;1.42;;
21837;SDS011;11081;45.946;6.140;2023-12-22T08:54:03;7.43;;;2.60;;
21837;SDS011;11081;45.946;6.140;2023-12-22T08:56:31;6.65;;;2.95;;
21837;SDS011;11081;45.946;6.140;2023-12-22T08:59:01;6.40;;;2.67;;
21837;SDS011;11081;45.946;6.140;2023-12-22T09:01:29;8.17;;;2.80;;
21837;SDS011;11081;45.946;6.140;2023-12-22T09:03:57;6.03;;;1.83;;
21837;SDS011;11081;45.946;6.140;2023-12-22T09:06:25;3.80;;;1.23;;
21837;SDS011;11081;45.946;6.140;2023-12-22T09:08:53;6.32;;;1.42;;
21837;SDS011;11081;45.946;6.140;2023-12-22T09:11:23;3.83;;;1.50;;
21837;SDS011;11081;45.946;6.140;2023-12-22T09:13:52;7.17;;;1.77;;
21837;SDS011;11081;45.946;6.140;2023-12-22T09:16:22;6.97;;;1.07;;
21837;SDS011;11081;45.946;6.140;2023-12-22T09:18:51;4.33;;;1.20;;
21837;SDS011;11081;45.946;6.140;2023-12-22T09:21:19;3.33;;;1.27;;
21837;SDS011;11081;45.946;6.140;2023-12-22T09:23:47;4.00;;;1.80;;
21837;SDS011;11081;45.946;6.140;2023-12-22T09:26:16;5.67;;;1.50;;
21837;SDS011;11081;45.946;6.140;2023-12-22T09:28:45;4.53;;;1.80;;
21837;SDS011;11081;45.946;6.140;2023-12-22T09:31:13;5.97;;;1.98;;
21837;SDS011;11081;45.946;6.140;2023-12-22T09:33:42;6.82;;;1.92;;
21837;SDS011;11081;45.946;6.140;2023-12-22T09:36:10;5.43;;;1.95;;
21837;SDS011;11081;45.946;6.140;2023-12-22T09:38:38;4.43;;;1.58;;
21837;SDS011;11081;45.946;6.140;2023-12-22T09:41:06;6.47;;;1.92;;
21837;SDS011;11081;45.946;6.140;2023-12-22T09:43:35;4.00;;;1.60;;
21837;SDS011;11081;45.946;6.140;2023-12-22T09:46:05;5.90;;;2.00;;
21837;SDS011;11081;45.946;6.140;2023-12-22T09:48:33;10.07;;;2.00;;
21837;SDS011;11081;45.946;6.140;2023-12-22T09:51:06;6.87;;;2.27;;
21837;SDS011;11081;45.946;6.140;2023-12-22T09:53:35;4.25;;;2.28;;
21837;SDS011;11081;45.946;6.140;2023-12-22T09:56:06;5.50;;;2.47;;
21837;SDS011;11081;45.946;6.140;2023-12-22T09:58:35;6.93;;;3.20;;
21837;SDS011;11081;45.946;6.140;2023-12-22T10:01:06;5.88;;;2.45;;
21837;SDS011;11081;45.946;6.140;2023-12-22T10:03:36;5.78;;;1.80;;
21837;SDS011;11081;45.946;6.140;2023-12-22T10:06:05;6.10;;;2.55;;
21837;SDS011;11081;45.946;6.140;2023-12-22T10:08:33;6.00;;;1.90;;
21837;SDS011;11081;45.946;6.140;2023-12-22T10:11:03;4.03;;;1.58;;
21837;SDS011;11081;45.946;6.140;2023-12-22T10:13:32;2.33;;;1.30;;
21837;SDS011;11081;45.946;6.140;2023-12-22T10:16:03;3.00;;;1.05;;
21837;SDS011;11081;45.946;6.140;2023-12-22T10:18:34;5.45;;;1.70;;
21837;SDS011;11081;45.946;6.140;2023-12-22T10:21:02;6.88;;;1.38;;
21837;SDS011;11081;45.946;6.140;2023-12-22T10:23:30;4.25;;;1.60;;
21837;SDS011;11081;45.946;6.140;2023-12-22T10:25:59;7.75;;;1.20;;
21837;SDS011;11081;45.946;6.140;2023-12-22T10:28:27;6.13;;;2.85;;
21837;SDS011;11081;45.946;6.140;2023-12-22T10:30:55;5.47;;;2.25;;
21837;SDS011;11081;45.946;6.140;2023-12-22T10:33:30;10.73;;;2.00;;
21837;SDS011;11081;45.946;6.140;2023-12-22T10:36:00;8.48;;;2.10;;
21837;SDS011;11081;45.946;6.140;2023-12-22T10:38:31;7.03;;;2.20;;
21837;SDS011;11081;45.946;6.140;2023-12-22T10:41:00;5.18;;;2.42;;
21837;SDS011;11081;45.946;6.140;2023-12-22T10:43:28;9.63;;;2.80;;
21837;SDS011;11081;45.946;6.140;2023-12-22T10:45:56;6.32;;;2.35;;
21837;SDS011;11081;45.946;6.140;2023-12-22T10:48:24;7.32;;;2.45;;
21837;SDS011;11081;45.946;6.140;2023-12-22T10:50:52;3.58;;;1.73;;
21837;SDS011;11081;45.946;6.140;2023-12-22T10:53:22;4.25;;;2.10;;
21837;SDS011;11081;45.946;6.140;2023-12-22T10:55:51;4.30;;;1.90;;
21837;SDS011;11081;45.946;6.140;2023-12-22T10:58:19;4.13;;;1.63;;
21837;SDS011;11081;45.946;6.140;2023-12-22T11:00:47;5.63;;;2.38;;
21837;SDS011;11081;45.946;6.140;2023-12-22T11:03:18;7.63;;;3.13;;
21837;SDS011;11081;45.946;6.140;2023-12-22T11:05:51;6.05;;;1.80;;
21837;SDS011;11081;45.946;6.140;2023-12-22T11:08:23;6.90;;;1.70;;
21837;SDS011;11081;45.946;6.140;2023-12-22T11:10:56;3.92;;;1.70;;
21837;SDS011;11081;45.946;6.140;2023-12-22T11:13:26;3.03;;;1.65;;
21837;SDS011;11081;45.946;6.140;2023-12-22T11:15:57;3.08;;;1.40;;
21837;SDS011;11081;45.946;6.140;2023-12-22T11:18:25;6.40;;;1.50;;
21837;SDS011;11081;45.946;6.140;2023-12-22T11:20:56;3.38;;;1.70;;
21837;SDS011;11081;45.946;6.140;2023-12-22T11:23:27;4.35;;;2.30;;
21837;SDS011;11081;45.946;6.140;2023-12-22T11:25:58;3.83;;;2.15;;
21837;SDS011;11081;45.946;6.140;2023-12-22T11:28:26;5.68;;;2.60;;
21837;SDS011;11081;45.946;6.140;2023-12-22T11:30:54;5.05;;;1.80;;
21837;SDS011;11081;45.946;6.140;2023-12-22T11:33:25;4.80;;;1.70;;
21837;SDS011;11081;45.946;6.140;2023-12-22T11:35:54;2.78;;;1.65;;
21837;SDS011;11081;45.946;6.140;2023-12-22T11:38:23;4.30;;;1.95;;
21837;SDS011;11081;45.946;6.140;2023-12-22T11:40:53;8.10;;;2.15;;
21837;SDS011;11081;45.946;6.140;2023-12-22T11:43:22;4.15;;;1.80;;
21837;SDS011;11081;45.946;6.140;2023-12-22T11:45:50;4.88;;;1.20;;
21837;SDS011;11081;45.946;6.140;2023-12-22T11:48:18;4.63;;;1.67;;
21837;SDS011;11081;45.946;6.140;2023-12-22T11:50:47;4.72;;;1.77;;
21837;SDS011;11081;45.946;6.140;2023-12-22T11:53:19;4.13;;;1.50;;
21837;SDS011;11081;45.946;6.140;2023-12-22T11:55:59;2.50;;;1.30;;
21837;SDS011;11081;45.946;6.140;2023-12-22T11:58:39;4.07;;;1.20;;
21837;SDS011;11081;45.946;6.140;2023-12-22T12:01:08;3.70;;;1.20;;
21837;SDS011;11081;45.946;6.140;2023-12-22T12:03:37;4.05;;;1.30;;
21837;SDS011;11081;45.946;6.140;2023-12-22T12:06:13;2.70;;;1.30;;
21837;SDS011;11081;45.946;6.140;2023-12-22T12:08:43;5.30;;;1.42;;
21837;SDS011;11081;45.946;6.140;2023-12-22T12:11:12;4.30;;;1.40;;
21837;SDS011;11081;45.946;6.140;2023-12-22T12:13:43;5.15;;;1.92;;
21837;SDS011;11081;45.946;6.140;2023-12-22T12:16:13;3.67;;;1.58;;
21837;SDS011;11081;45.946;6.140;2023-12-22T12:18:42;3.90;;;1.33;;
21837;SDS011;11081;45.946;6.140;2023-12-22T12:21:12;3.10;;;1.80;;
21837;SDS011;11081;45.946;6.140;2023-12-22T12:23:40;1.98;;;1.42;;
21837;SDS011;11081;45.946;6.140;2023-12-22T12:26:08;4.13;;;1.33;;
21837;SDS011;11081;45.946;6.140;2023-12-22T12:28:38;2.78;;;1.80;;
21837;SDS011;11081;45.946;6.140;2023-12-22T12:31:06;4.18;;;1.27;;
21837;SDS011;11081;45.946;6.140;2023-12-22T12:33:35;6.50;;;1.75;;
21837;SDS011;11081;45.946;6.140;2023-12-22T12:36:04;3.75;;;1.27;;
21837;SDS011;11081;45.946;6.140;2023-12-22T12:38:36;3.55;;;1.45;;
21837;SDS011;11081;45.946;6.140;2023-12-22T12:41:07;3.90;;;1.33;;
21837;SDS011;11081;45.946;6.140;2023-12-22T12:43:41;3.42;;;1.30;;
21837;SDS011;11081;45.946;6.140;2023-12-22T12:46:10;3.33;;;1.38;;
21837;SDS011;11081;45.946;6.140;2023-12-22T12:48:39;3.22;;;1.60;;
21837;SDS011;11081;45.946;6.140;2023-12-22T12:51:07;5.38;;;1.55;;
21837;SDS011;11081;45.946;6.140;2023-12-22T12:53:36;4.70;;;1.33;;
21837;SDS011;11081;45.946;6.140;2023-12-22T12:56:04;6.03;;;1.20;;
21837;SDS011;11081;45.946;6.140;2023-12-22T12:58:32;2.35;;;1.10;;
21837;SDS011;11081;45.946;6.140;2023-12-22T13:01:06;4.03;;;1.63;;
21837;SDS011;11081;45.946;6.140;2023-12-22T13:06:21;4.45;;;1.67;;
21837;SDS011;11081;45.946;6.140;2023-12-22T13:08:48;3.25;;;1.38;;
21837;SDS011;11081;45.946;6.140;2023-12-22T13:11:19;5.90;;;2.03;;
21837;SDS011;11081;45.946;6.140;2023-12-22T13:13:49;5.65;;;2.10;;
21837;SDS011;11081;45.946;6.140;2023-12-22T13:16:20;4.47;;;2.20;;
21837;SDS011;11081;45.946;6.140;2023-12-22T13:18:49;2.83;;;1.90;;
21837;SDS011;11081;45.946;6.140;2023-12-22T13:21:17;4.90;;;2.27;;
21837;SDS011;11081;45.946;6.140;2023-12-22T13:23:46;3.70;;;2.03;;
21837;SDS011;11081;45.946;6.140;2023-12-22T13:26:17;7.20;;;2.67;;
21837;SDS011;11081;45.946;6.140;2023-12-22T13:28:46;4.07;;;2.00;;
21837;SDS011;11081;45.946;6.140;2023-12-22T13:31:14;4.77;;;2.40;;
21837;SDS011;11081;45.946;6.140;2023-12-22T13:33:46;4.38;;;2.17;;
21837;SDS011;11081;45.946;6.140;2023-12-22T13:36:14;5.50;;;2.25;;
21837;SDS011;11081;45.946;6.140;2023-12-22T13:38:45;6.63;;;2.47;;
21837;SDS011;11081;45.946;6.140;2023-12-22T13:41:14;4.00;;;2.40;;
21837;SDS011;11081;45.946;6.140;2023-12-22T13:43:43;4.32;;;2.58;;
21837;SDS011;11081;45.946;6.140;2023-12-22T13:46:11;4.25;;;2.45;;
21837;SDS011;11081;45.946;6.140;2023-12-22T13:48:40;5.13;;;2.17;;
21837;SDS011;11081;45.946;6.140;2023-12-22T13:51:10;4.90;;;2.40;;
21837;SDS011;11081;45.946;6.140;2023-12-22T13:53:46;5.78;;;2.28;;
21837;SDS011;11081;45.946;6.140;2023-12-22T13:56:14;3.67;;;1.48;;
21837;SDS011;11081;45.946;6.140;2023-12-22T13:58:46;3.53;;;1.27;;
21837;SDS011;11081;45.946;6.140;2023-12-22T14:01:14;6.38;;;1.30;;
21837;SDS011;11081;45.946;6.140;2023-12-22T14:03:43;1.85;;;1.08;;
21837;SDS011;11081;45.946;6.140;2023-12-22T14:06:13;3.60;;;1.65;;
21837;SDS011;11081;45.946;6.140;2023-12-22T14:08:41;2.08;;;1.40;;
21837;SDS011;11081;45.946;6.140;2023-12-22T14:11:09;3.08;;;1.17;;
21837;SDS011;11081;45.946;6.140;2023-12-22T14:13:38;5.88;;;1.30;;
21837;SDS011;11081;45.946;6.140;2023-12-22T14:16:07;2.63;;;1.38;;
21837;SDS011;11081;45.946;6.140;2023-12-22T14:18:35;3.67;;;1.65;;
21837;SDS011;11081;45.946;6.140;2023-12-22T14:21:03;11.32;;;3.38;;
21837;SDS011;11081;45.946;6.140;2023-12-22T14:23:33;5.45;;;2.13;;
21837;SDS011;11081;45.946;6.140;2023-12-22T14:26:01;9.30;;;3.65;;
21837;SDS011;11081;45.946;6.140;2023-12-22T14:28:29;11.00;;;5.53;;
21837;SDS011;11081;45.946;6.140;2023-12-22T14:30:57;8.95;;;3.97;;
21837;SDS011;11081;45.946;6.140;2023-12-22T14:33:25;7.55;;;4.32;;
21837;SDS011;11081;45.946;6.140;2023-12-22T14:35:53;4.75;;;2.80;;
21837;SDS011;11081;45.946;6.140;2023-12-22T14:38:21;7.07;;;2.10;;
21837;SDS011;11081;45.946;6.140;2023-12-22T14:40:50;3.42;;;1.80;;
21837;SDS011;11081;45.946;6.140;2023-12-22T14:43:18;6.53;;;2.33;;
21837;SDS011;11081;45.946;6.140;2023-12-22T14:45:46;5.03;;;1.92;;
21837;SDS011;11081;45.946;6.140;2023-12-22T14:48:14;5.73;;;2.70;;
21837;SDS011;11081;45.946;6.140;2023-12-22T14:50:42;5.35;;;2.10;;
21837;SDS011;11081;45.946;6.140;2023-12-22T14:53:10;4.38;;;2.30;;
21837;SDS011;11081;45.946;6.140;2023-12-22T14:55:39;5.13;;;2.25;;
21837;SDS011;11081;45.946;6.140;2023-12-22T14:58:08;4.28;;;2.30;;
21837;SDS011;11081;45.946;6.140;2023-12-22T15:00:36;4.53;;;2.80;;
21837;SDS011;11081;45.946;6.140;2023-12-22T15:03:04;5.22;;;3.10;;
21837;SDS011;11081;45.946;6.140;2023-12-22T15:05:34;4.05;;;2.42;;